sensor_id;sensor_type;location;lat;lon;timestamp;pressure;altitude;pressure_sealevel;temperature;humidity
6413;BME280;3239;48.714;9.472;2023-08-21T00:00:06;99512.34;;;21.39;100.00
6413;BME280;3239;48.714;9.472;2023-08-21T00:02:32;99525.34;;;21.44;100.00
6413;BME280;3239;48.714;9.472;2023-08-21T00:04:58;99518.13;;;21.41;100.00
6413;BME280;3239;48.714;9.472;2023-08-21T00:07:24;99523.09;;;21.43;100.00
6413;BME280;3239;48.714;9.472;2023-08-21T00:09:50;99521.66;;;21.34;100.00
6413;BME280;3239;48.714;9.472;2023-08-21T00:12:16;99528.56;;;21.33;100.00
6413;BME280;3239;48.714;9.472;2023-08-21T00:14:41;99522.44;;;21.27;100.00
6413;BME280;3239;48.714;9.472;2023-08-21T00:17:07;99526.91;;;21.30;100.00
6413;BME280;3239;48.714;9.472;2023-08-21T00:19:33;99522.81;;;21.31;100.00
6413;BME280;3239;48.714;9.472;2023-08-21T00:22:00;99523.97;;;21.21;100.00
6413;BME280;3239;48.714;9.472;2023-08-21T00:24:26;99531.06;;;21.14;100.00
6413;BME280;3239;48.714;9.472;2023-08-21T00:26:52;99527.19;;;21.10;100.00
6413;BME280;3239;48.714;9.472;2023-08-21T00:29:17;99532.75;;;21.10;100.00
6413;BME280;3239;48.714;9.472;2023-08-21T00:31:43;99530.88;;;21.12;100.00
6413;BME280;3239;48.714;9.472;2023-08-21T00:34:09;99529.25;;;21.09;100.00
6413;BME280;3239;48.714;9.472;2023-08-21T00:36:35;99533.13;;;21.06;100.00
6413;BME280;3239;48.714;9.472;2023-08-21T00:39:01;99544.13;;;21.04;100.00
6413;BME280;3239;48.714;9.472;2023-08-21T00:41:26;99542.09;;;20.97;100.00
6413;BME280;3239;48.714;9.472;2023-08-21T00:43:52;99548.03;;;21.01;100.00
6413;BME280;3239;48.714;9.472;2023-08-21T00:46:18;99544.53;;;20.93;100.00
6413;BME280;3239;48.714;9.472;2023-08-21T00:48:44;99537.28;;;20.90;100.00
6413;BME280;3239;48.714;9.472;2023-08-21T00:51:11;99537.59;;;21.09;100.00
6413;BME280;3239;48.714;9.472;2023-08-21T00:53:38;99539.75;;;21.26;100.00
6413;BME280;3239;48.714;9.472;2023-08-21T00:56:04;99536.97;;;21.18;100.00
6413;BME280;3239;48.714;9.472;2023-08-21T00:58:30;99535.34;;;21.15;100.00
6413;BME280;3239;48.714;9.472;2023-08-21T01:00:55;99538.50;;;21.19;100.00
6413;BME280;3239;48.714;9.472;2023-08-21T01:03:23;99540.25;;;21.32;100.00
6413;BME280;3239;48.714;9.472;2023-08-21T01:05:49;99547.00;;;21.29;100.00
6413;BME280;3239;48.714;9.472;2023-08-21T01:08:28;99547.78;;;21.22;100.00
6413;BME280;3239;48.714;9.472;2023-08-21T01:16:37;99546.28;;;21.13;100.00
6413;BME280;3239;48.714;9.472;2023-08-21T01:19:10;99551.28;;;21.22;100.00
6413;BME280;3239;48.714;9.472;2023-08-21T01:21:40;99548.72;;;21.17;100.00
6413;BME280;3239;48.714;9.472;2023-08-21T01:24:06;99555.44;;;21.06;100.00
6413;BME280;3239;48.714;9.472;2023-08-21T01:26:32;99552.69;;;20.99;100.00
6413;BME280;3239;48.714;9.472;2023-08-21T01:28:57;99551.75;;;20.96;100.00
6413;BME280;3239;48.714;9.472;2023-08-21T01:31:34;99549.34;;;20.93;100.00
6413;BME280;3239;48.714;9.472;2023-08-21T01:34:06;99546.94;;;20.97;100.00
6413;BME280;3239;48.714;9.472;2023-08-21T01:36:35;99541.91;;;20.95;100.00
6413;BME280;3239;48.714;9.472;2023-08-21T01:39:01;99543.78;;;20.93;100.00
6413;BME280;3239;48.714;9.472;2023-08-21T01:41:27;99546.94;;;20.89;100.00
6413;BME280;3239;48.714;9.472;2023-08-21T01:43:53;99548.25;;;20.81;100.00
6413;BME280;3239;48.714;9.472;2023-08-21T01:46:18;99531.34;;;20.79;100.00
6413;BME280;3239;48.714;9.472;2023-08-21T01:48:44;99536.56;;;20.82;100.00
6413;BME280;3239;48.714;9.472;2023-08-21T01:51:10;99545.81;;;20.92;100.00
6413;BME280;3239;48.714;9.472;2023-08-21T01:53:36;99546.00;;;20.94;100.00
6413;BME280;3239;48.714;9.472;2023-08-21T01:56:02;99547.50;;;20.95;100.00
6413;BME280;3239;48.714;9.472;2023-08-21T01:58:27;99536.91;;;20.79;100.00
6413;BME280;3239;48.714;9.472;2023-08-21T02:00:53;99532.09;;;20.79;100.00
6413;BME280;3239;48.714;9.472;2023-08-21T02:03:19;99537.69;;;20.72;100.00
6413;BME280;3239;48.714;9.472;2023-08-21T02:05:44;99547.72;;;20.75;100.00
6413;BME280;3239;48.714;9.472;2023-08-21T02:08:13;99541.94;;;20.73;100.00
6413;BME280;3239;48.714;9.472;2023-08-21T02:10:51;99534.75;;;20.62;100.00
6413;BME280;3239;48.714;9.472;2023-08-21T02:13:19;99539.38;;;20.60;100.00
6413;BME280;3239;48.714;9.472;2023-08-21T02:15:44;99543.28;;;20.57;100.00
6413;BME280;3239;48.714;9.472;2023-08-21T02:18:10;99536.97;;;20.56;100.00
6413;BME280;3239;48.714;9.472;2023-08-21T02:20:36;99537.13;;;20.66;100.00
6413;BME280;3239;48.714;9.472;2023-08-21T02:23:02;99541.63;;;20.61;100.00
6413;BME280;3239;48.714;9.472;2023-08-21T02:25:29;99540.31;;;20.55;100.00
6413;BME280;3239;48.714;9.472;2023-08-21T02:27:55;99538.47;;;20.57;100.00
6413;BME280;3239;48.714;9.472;2023-08-21T02:30:21;99544.03;;;20.57;100.00
6413;BME280;3239;48.714;9.472;2023-08-21T02:32:53;99540.72;;;20.51;100.00
6413;BME280;3239;48.714;9.472;2023-08-21T02:35:20;99544.59;;;20.48;100.00
6413;BME280;3239;48.714;9.472;2023-08-21T02:37:46;99541.63;;;20.46;100.00
6413;BME280;3239;48.714;9.472;2023-08-21T02:40:12;99544.59;;;20.41;100.00
6413;BME280;3239;48.714;9.472;2023-08-21T02:42:37;99543.88;;;20.48;100.00
6413;BME280;3239;48.714;9.472;2023-08-21T02:45:04;99543.28;;;20.42;100.00
6413;BME280;3239;48.714;9.472;2023-08-21T02:47:38;99550.16;;;20.41;100.00
6413;BME280;3239;48.714;9.472;2023-08-21T02:50:08;99546.09;;;20.34;100.00
6413;BME280;3239;48.714;9.472;2023-08-21T02:52:34;99549.44;;;20.33;100.00
6413;BME280;3239;48.714;9.472;2023-08-21T02:55:01;99550.16;;;20.33;100.00
6413;BME280;3239;48.714;9.472;2023-08-21T02:57:27;99549.78;;;20.29;100.00
6413;BME280;3239;48.714;9.472;2023-08-21T02:59:54;99546.47;;;20.38;100.00
6413;BME280;3239;48.714;9.472;2023-08-21T03:02:20;99545.91;;;20.40;100.00
6413;BME280;3239;48.714;9.472;2023-08-21T03:04:47;99549.44;;;20.40;100.00
6413;BME280;3239;48.714;9.472;2023-08-21T03:07:13;99536.63;;;20.30;100.00
6413;BME280;3239;48.714;9.472;2023-08-21T03:09:40;99536.84;;;20.24;100.00
6413;BME280;3239;48.714;9.472;2023-08-21T03:12:07;99545.38;;;20.26;100.00
6413;BME280;3239;48.714;9.472;2023-08-21T03:14:34;99537.75;;;20.19;100.00
6413;BME280;3239;48.714;9.472;2023-08-21T03:17:01;99537.00;;;20.19;100.00
6413;BME280;3239;48.714;9.472;2023-08-21T03:19:27;99541.47;;;20.14;100.00
6413;BME280;3239;48.714;9.472;2023-08-21T03:21:52;99536.47;;;20.13;100.00
6413;BME280;3239;48.714;9.472;2023-08-21T03:24:18;99546.84;;;20.12;100.00
6413;BME280;3239;48.714;9.472;2023-08-21T03:26:44;99537.00;;;20.11;100.00
6413;BME280;3239;48.714;9.472;2023-08-21T03:29:10;99542.75;;;20.06;100.00
6413;BME280;3239;48.714;9.472;2023-08-21T03:31:35;99542.41;;;20.09;100.00
6413;BME280;3239;48.714;9.472;2023-08-21T03:34:01;99552.78;;;20.09;100.00
6413;BME280;3239;48.714;9.472;2023-08-21T03:36:27;99543.47;;;20.06;100.00
6413;BME280;3239;48.714;9.472;2023-08-21T03:39:00;99536.97;;;20.04;100.00
6413;BME280;3239;48.714;9.472;2023-08-21T03:41:27;99539.75;;;20.04;100.00
6413;BME280;3239;48.714;9.472;2023-08-21T03:43:53;99548.84;;;19.97;100.00
6413;BME280;3239;48.714;9.472;2023-08-21T03:46:19;99543.66;;;20.01;100.00
6413;BME280;3239;48.714;9.472;2023-08-21T03:48:45;99545.50;;;19.91;100.00
6413;BME280;3239;48.714;9.472;2023-08-21T03:51:11;99549.41;;;19.88;100.00
6413;BME280;3239;48.714;9.472;2023-08-21T03:53:37;99550.88;;;19.96;100.00
6413;BME280;3239;48.714;9.472;2023-08-21T03:56:03;99560.16;;;19.91;100.00
6413;BME280;3239;48.714;9.472;2023-08-21T03:58:29;99557.59;;;20.01;100.00
6413;BME280;3239;48.714;9.472;2023-08-21T04:00:54;99558.28;;;19.86;100.00
6413;BME280;3239;48.714;9.472;2023-08-21T04:03:21;99553.31;;;19.85;100.00
6413;BME280;3239;48.714;9.472;2023-08-21T04:05:47;99568.50;;;19.91;100.00
6413;BME280;3239;48.714;9.472;2023-08-21T04:08:13;99564.97;;;19.83;100.00
6413;BME280;3239;48.714;9.472;2023-08-21T04:10:39;99568.50;;;19.91;100.00
6413;BME280;3239;48.714;9.472;2023-08-21T04:13:05;99576.13;;;19.91;100.00
6413;BME280;3239;48.714;9.472;2023-08-21T04:15:33;99575.91;;;19.89;100.00
6413;BME280;3239;48.714;9.472;2023-08-21T04:18:00;99571.66;;;19.88;100.00
6413;BME280;3239;48.714;9.472;2023-08-21T04:20:26;99577.59;;;19.92;100.00
6413;BME280;3239;48.714;9.472;2023-08-21T04:22:52;99579.63;;;19.99;100.00
6413;BME280;3239;48.714;9.472;2023-08-21T04:25:18;99580.38;;;19.99;100.00
6413;BME280;3239;48.714;9.472;2023-08-21T04:27:44;99584.69;;;20.08;100.00
6413;BME280;3239;48.714;9.472;2023-08-21T04:30:11;99593.94;;;20.03;100.00
6413;BME280;3239;48.714;9.472;2023-08-21T04:32:36;99594.31;;;19.99;100.00
6413;BME280;3239;48.714;9.472;2023-08-21T04:35:03;99588.38;;;20.03;100.00
6413;BME280;3239;48.714;9.472;2023-08-21T04:37:31;99595.63;;;20.06;100.00
6413;BME280;3239;48.714;9.472;2023-08-21T04:39:57;99592.66;;;20.11;100.00
6413;BME280;3239;48.714;9.472;2023-08-21T04:42:23;99596.56;;;20.16;100.00
6413;BME280;3239;48.714;9.472;2023-08-21T04:44:48;99599.16;;;20.14;100.00
6413;BME280;3239;48.714;9.472;2023-08-21T04:47:25;99597.63;;;20.05;100.00
6413;BME280;3239;48.714;9.472;2023-08-21T04:49:55;99600.09;;;20.09;100.00
6413;BME280;3239;48.714;9.472;2023-08-21T04:52:22;99598.78;;;20.10;100.00
6413;BME280;3239;48.714;9.472;2023-08-21T04:54:49;99606.97;;;20.15;100.00
6413;BME280;3239;48.714;9.472;2023-08-21T04:57:15;99613.63;;;20.20;100.00
6413;BME280;3239;48.714;9.472;2023-08-21T04:59:42;99611.97;;;20.17;100.00
6413;BME280;3239;48.714;9.472;2023-08-21T05:02:07;99614.03;;;20.31;100.00
6413;BME280;3239;48.714;9.472;2023-08-21T05:04:36;99623.47;;;20.43;100.00
6413;BME280;3239;48.714;9.472;2023-08-21T05:07:02;99621.47;;;20.44;100.00
6413;BME280;3239;48.714;9.472;2023-08-21T05:09:28;99626.28;;;20.51;100.00
6413;BME280;3239;48.714;9.472;2023-08-21T05:11:54;99628.50;;;20.52;100.00
6413;BME280;3239;48.714;9.472;2023-08-21T05:14:21;99635.19;;;20.57;100.00
6413;BME280;3239;48.714;9.472;2023-08-21T05:16:49;99629.25;;;20.45;100.00
6413;BME280;3239;48.714;9.472;2023-08-21T05:19:16;99633.88;;;20.65;100.00
6413;BME280;3239;48.714;9.472;2023-08-21T05:21:42;99632.38;;;20.64;100.00
6413;BME280;3239;48.714;9.472;2023-08-21T05:24:07;99638.72;;;20.65;100.00
6413;BME280;3239;48.714;9.472;2023-08-21T05:26:36;99642.22;;;20.65;100.00
6413;BME280;3239;48.714;9.472;2023-08-21T05:29:02;99645.94;;;20.75;100.00
6413;BME280;3239;48.714;9.472;2023-08-21T05:31:28;99642.03;;;20.48;100.00
6413;BME280;3239;48.714;9.472;2023-08-21T05:33:54;99652.63;;;20.80;100.00
6413;BME280;3239;48.714;9.472;2023-08-21T05:36:19;99648.00;;;20.67;100.00
6413;BME280;3239;48.714;9.472;2023-08-21T05:38:45;99654.31;;;20.90;100.00
6413;BME280;3239;48.714;9.472;2023-08-21T05:41:16;99656.72;;;21.01;100.00
6413;BME280;3239;48.714;9.472;2023-08-21T05:43:42;99657.25;;;21.00;100.00
6413;BME280;3239;48.714;9.472;2023-08-21T05:46:08;99665.44;;;21.05;100.00
6413;BME280;3239;48.714;9.472;2023-08-21T05:48:34;99667.47;;;20.97;100.00
6413;BME280;3239;48.714;9.472;2023-08-21T05:51:00;99674.69;;;21.23;100.00
6413;BME280;3239;48.714;9.472;2023-08-21T05:53:26;99674.34;;;21.19;100.00
6413;BME280;3239;48.714;9.472;2023-08-21T05:55:53;99681.91;;;21.26;100.00
6413;BME280;3239;48.714;9.472;2023-08-21T05:58:19;99683.06;;;21.23;100.00
6413;BME280;3239;48.714;9.472;2023-08-21T06:00:47;99682.84;;;21.36;100.00
6413;BME280;3239;48.714;9.472;2023-08-21T06:03:13;99679.94;;;20.96;100.00
6413;BME280;3239;48.714;9.472;2023-08-21T06:05:39;99679.91;;;21.19;100.00
6413;BME280;3239;48.714;9.472;2023-08-21T06:08:05;99687.88;;;21.30;100.00
6413;BME280;3239;48.714;9.472;2023-08-21T06:10:33;99698.38;;;21.61;100.00
6413;BME280;3239;48.714;9.472;2023-08-21T06:12:59;99690.34;;;21.65;100.00
6413;BME280;3239;48.714;9.472;2023-08-21T06:15:25;99707.50;;;22.09;100.00
6413;BME280;3239;48.714;9.472;2023-08-21T06:17:51;99699.16;;;22.01;100.00
6413;BME280;3239;48.714;9.472;2023-08-21T06:20:16;99711.38;;;22.45;100.00
6413;BME280;3239;48.714;9.472;2023-08-21T06:22:44;99726.47;;;22.74;100.00
6413;BME280;3239;48.714;9.472;2023-08-21T06:25:10;99731.97;;;23.06;100.00
6413;BME280;3239;48.714;9.472;2023-08-21T06:27:35;99739.34;;;23.19;100.00
6413;BME280;3239;48.714;9.472;2023-08-21T06:30:01;99735.53;;;23.07;100.00
6413;BME280;3239;48.714;9.472;2023-08-21T06:34:52;99730.53;;;23.22;100.00
6413;BME280;3239;48.714;9.472;2023-08-21T06:37:18;99728.94;;;23.53;100.00
6413;BME280;3239;48.714;9.472;2023-08-21T06:39:44;99700.16;;;23.02;100.00
6413;BME280;3239;48.714;9.472;2023-08-21T06:42:10;99671.66;;;22.96;100.00
6413;BME280;3239;48.714;9.472;2023-08-21T06:44:36;99676.63;;;23.73;100.00
6413;BME280;3239;48.714;9.472;2023-08-21T06:47:01;99658.88;;;23.61;100.00
6413;BME280;3239;48.714;9.472;2023-08-21T06:49:27;99620.69;;;23.56;100.00
6413;BME280;3239;48.714;9.472;2023-08-21T06:51:53;99605.44;;;24.19;100.00
6413;BME280;3239;48.714;9.472;2023-08-21T06:54:19;99564.63;;;23.90;100.00
6413;BME280;3239;48.714;9.472;2023-08-21T06:56:44;99531.59;;;23.52;100.00
6413;BME280;3239;48.714;9.472;2023-08-21T06:59:10;99523.84;;;23.96;100.00
6413;BME280;3239;48.714;9.472;2023-08-21T07:01:36;99500.63;;;24.13;100.00
6413;BME280;3239;48.714;9.472;2023-08-21T07:04:02;99491.13;;;24.82;100.00
6413;BME280;3239;48.714;9.472;2023-08-21T07:06:29;99452.00;;;25.13;100.00
6413;BME280;3239;48.714;9.472;2023-08-21T07:08:55;99425.88;;;25.60;100.00
6413;BME280;3239;48.714;9.472;2023-08-21T07:11:21;99365.94;;;25.15;100.00
6413;BME280;3239;48.714;9.472;2023-08-21T07:13:47;99331.31;;;24.92;100.00
6413;BME280;3239;48.714;9.472;2023-08-21T07:16:12;99278.22;;;24.25;100.00
6413;BME280;3239;48.714;9.472;2023-08-21T07:18:38;99271.75;;;24.72;100.00
6413;BME280;3239;48.714;9.472;2023-08-21T07:21:04;99262.31;;;24.77;100.00
6413;BME280;3239;48.714;9.472;2023-08-21T07:23:30;99250.13;;;24.94;100.00
6413;BME280;3239;48.714;9.472;2023-08-21T07:25:57;99260.22;;;25.18;100.00
6413;BME280;3239;48.714;9.472;2023-08-21T07:28:23;99220.97;;;25.39;100.00
6413;BME280;3239;48.714;9.472;2023-08-21T07:30:54;99207.41;;;25.35;100.00
6413;BME280;3239;48.714;9.472;2023-08-21T07:33:20;99198.53;;;25.92;100.00
6413;BME280;3239;48.714;9.472;2023-08-21T07:35:46;99202.72;;;25.70;100.00
6413;BME280;3239;48.714;9.472;2023-08-21T07:38:11;99168.84;;;25.15;100.00
6413;BME280;3239;48.714;9.472;2023-08-21T07:40:37;99178.78;;;25.69;100.00
6413;BME280;3239;48.714;9.472;2023-08-21T07:43:03;99193.03;;;25.41;100.00
6413;BME280;3239;48.714;9.472;2023-08-21T07:45:28;99240.56;;;26.02;100.00
6413;BME280;3239;48.714;9.472;2023-08-21T07:47:54;99229.75;;;26.08;100.00
6413;BME280;3239;48.714;9.472;2023-08-21T07:50:20;99253.28;;;26.47;100.00
6413;BME280;3239;48.714;9.472;2023-08-21T07:52:45;99204.59;;;25.89;100.00
6413;BME280;3239;48.714;9.472;2023-08-21T07:55:12;99184.59;;;26.38;100.00
6413;BME280;3239;48.714;9.472;2023-08-21T07:57:38;99153.91;;;26.19;100.00
6413;BME280;3239;48.714;9.472;2023-08-21T08:00:04;99142.34;;;26.82;100.00
6413;BME280;3239;48.714;9.472;2023-08-21T08:02:33;99102.41;;;25.82;100.00
6413;BME280;3239;48.714;9.472;2023-08-21T08:04:59;99106.16;;;26.54;100.00
6413;BME280;3239;48.714;9.472;2023-08-21T08:07:25;99093.38;;;27.10;100.00
6413;BME280;3239;48.714;9.472;2023-08-21T08:09:51;99082.94;;;27.24;100.00
6413;BME280;3239;48.714;9.472;2023-08-21T08:12:16;99057.38;;;27.70;100.00
6413;BME280;3239;48.714;9.472;2023-08-21T08:14:42;99039.13;;;26.85;100.00
6413;BME280;3239;48.714;9.472;2023-08-21T08:17:08;99056.53;;;26.35;100.00
6413;BME280;3239;48.714;9.472;2023-08-21T08:19:34;99067.81;;;27.06;100.00
6413;BME280;3239;48.714;9.472;2023-08-21T08:21:59;99056.22;;;27.37;100.00
6413;BME280;3239;48.714;9.472;2023-08-21T08:24:25;99046.34;;;27.74;100.00
6413;BME280;3239;48.714;9.472;2023-08-21T08:26:50;98991.47;;;27.37;100.00
6413;BME280;3239;48.714;9.472;2023-08-21T08:29:16;99002.66;;;27.48;100.00
6413;BME280;3239;48.714;9.472;2023-08-21T08:31:42;99010.75;;;27.29;100.00
6413;BME280;3239;48.714;9.472;2023-08-21T08:34:08;98990.06;;;27.24;100.00
6413;BME280;3239;48.714;9.472;2023-08-21T08:36:35;98982.75;;;28.23;100.00
6413;BME280;3239;48.714;9.472;2023-08-21T08:39:00;98929.78;;;27.54;100.00
6413;BME280;3239;48.714;9.472;2023-08-21T08:42:02;98901.53;;;27.52;100.00
6413;BME280;3239;48.714;9.472;2023-08-21T08:44:25;98906.13;;;28.27;100.00
6413;BME280;3239;48.714;9.472;2023-08-21T08:46:52;98847.28;;;29.06;100.00
6413;BME280;3239;48.714;9.472;2023-08-21T08:49:18;98825.84;;;29.63;100.00
6413;BME280;3239;48.714;9.472;2023-08-21T08:51:44;98823.94;;;30.01;100.00
6413;BME280;3239;48.714;9.472;2023-08-21T08:54:11;98820.13;;;29.94;100.00
6413;BME280;3239;48.714;9.472;2023-08-21T08:56:38;98807.28;;;30.42;100.00
6413;BME280;3239;48.714;9.472;2023-08-21T08:59:07;98806.88;;;31.41;100.00
6413;BME280;3239;48.714;9.472;2023-08-21T09:01:33;98808.81;;;30.99;100.00
6413;BME280;3239;48.714;9.472;2023-08-21T09:03:59;98802.25;;;32.12;100.00
6413;BME280;3239;48.714;9.472;2023-08-21T09:06:25;98786.59;;;32.99;100.00
6413;BME280;3239;48.714;9.472;2023-08-21T09:08:58;98783.78;;;32.54;100.00
6413;BME280;3239;48.714;9.472;2023-08-21T09:11:24;98779.50;;;32.10;100.00
6413;BME280;3239;48.714;9.472;2023-08-21T09:13:50;98791.13;;;30.99;100.00
6413;BME280;3239;48.714;9.472;2023-08-21T09:16:21;98787.47;;;32.15;100.00
6413;BME280;3239;48.714;9.472;2023-08-21T09:18:48;98774.94;;;32.44;100.00
6413;BME280;3239;48.714;9.472;2023-08-21T09:21:20;98776.88;;;30.97;100.00
6413;BME280;3239;48.714;9.472;2023-08-21T09:23:46;98786.94;;;31.19;100.00
6413;BME280;3239;48.714;9.472;2023-08-21T09:26:22;98780.09;;;31.65;100.00
6413;BME280;3239;48.714;9.472;2023-08-21T09:28:49;98777.50;;;32.57;100.00
6413;BME280;3239;48.714;9.472;2023-08-21T09:31:15;98768.03;;;32.72;100.00
6413;BME280;3239;48.714;9.472;2023-08-21T09:33:41;98769.63;;;32.56;100.00
6413;BME280;3239;48.714;9.472;2023-08-21T09:36:06;98764.13;;;32.83;100.00
6413;BME280;3239;48.714;9.472;2023-08-21T09:38:34;98762.09;;;32.41;100.00
6413;BME280;3239;48.714;9.472;2023-08-21T09:41:03;98764.25;;;32.87;100.00
6413;BME280;3239;48.714;9.472;2023-08-21T09:43:29;98757.31;;;32.47;100.00
6413;BME280;3239;48.714;9.472;2023-08-21T09:45:55;98762.88;;;33.14;100.00
6413;BME280;3239;48.714;9.472;2023-08-21T09:48:27;98759.84;;;33.31;100.00
6413;BME280;3239;48.714;9.472;2023-08-21T09:50:53;98762.03;;;34.15;100.00
6413;BME280;3239;48.714;9.472;2023-08-21T09:53:22;98752.41;;;34.91;100.00
6413;BME280;3239;48.714;9.472;2023-08-21T09:55:54;98752.16;;;34.79;100.00
6413;BME280;3239;48.714;9.472;2023-08-21T09:58:21;98744.16;;;35.77;100.00
6413;BME280;3239;48.714;9.472;2023-08-21T10:00:49;98748.56;;;34.77;100.00
6413;BME280;3239;48.714;9.472;2023-08-21T10:03:18;98734.25;;;35.44;100.00
6413;BME280;3239;48.714;9.472;2023-08-21T10:05:45;98731.97;;;35.01;100.00
6413;BME280;3239;48.714;9.472;2023-08-21T10:08:12;98731.63;;;34.22;100.00
6413;BME280;3239;48.714;9.472;2023-08-21T10:10:39;98719.00;;;36.08;100.00
6413;BME280;3239;48.714;9.472;2023-08-21T10:13:05;98722.84;;;35.44;100.00
6413;BME280;3239;48.714;9.472;2023-08-21T10:15:32;98721.16;;;35.29;100.00
6413;BME280;3239;48.714;9.472;2023-08-21T10:18:30;98720.56;;;35.34;100.00
6413;BME280;3239;48.714;9.472;2023-08-21T10:20:56;98708.84;;;35.97;100.00
6413;BME280;3239;48.714;9.472;2023-08-21T10:23:35;98708.63;;;36.31;100.00
6413;BME280;3239;48.714;9.472;2023-08-21T10:26:05;98703.44;;;36.65;100.00
6413;BME280;3239;48.714;9.472;2023-08-21T10:28:52;98700.22;;;36.41;100.00
6413;BME280;3239;48.714;9.472;2023-08-21T10:31:32;98703.00;;;35.91;100.00
6413;BME280;3239;48.714;9.472;2023-08-21T10:33:59;98694.25;;;36.73;100.00
6413;BME280;3239;48.714;9.472;2023-08-21T10:39:03;98691.94;;;37.17;100.00
6413;BME280;3239;48.714;9.472;2023-08-21T10:41:30;98690.00;;;38.17;100.00
6413;BME280;3239;48.714;9.472;2023-08-21T10:43:55;98687.75;;;38.01;100.00
6413;BME280;3239;48.714;9.472;2023-08-21T10:46:21;98686.28;;;36.15;100.00
6413;BME280;3239;48.714;9.472;2023-08-21T10:48:47;98678.00;;;34.73;100.00
6413;BME280;3239;48.714;9.472;2023-08-21T10:51:12;98673.97;;;36.53;100.00
6413;BME280;3239;48.714;9.472;2023-08-21T10:53:39;98675.53;;;36.62;100.00
6413;BME280;3239;48.714;9.472;2023-08-21T10:56:06;98658.81;;;36.96;100.00
6413;BME280;3239;48.714;9.472;2023-08-21T10:58:42;98668.25;;;36.01;100.00
6413;BME280;3239;48.714;9.472;2023-08-21T11:01:07;98670.00;;;36.74;100.00
6413;BME280;3239;48.714;9.472;2023-08-21T11:03:33;98663.47;;;38.08;100.00
6413;BME280;3239;48.714;9.472;2023-08-21T11:06:09;98662.13;;;36.72;100.00
6413;BME280;3239;48.714;9.472;2023-08-21T11:08:36;98667.72;;;36.14;100.00
6413;BME280;3239;48.714;9.472;2023-08-21T11:11:03;98663.25;;;35.58;100.00
6413;BME280;3239;48.714;9.472;2023-08-21T11:13:30;98666.13;;;36.03;100.00
6413;BME280;3239;48.714;9.472;2023-08-21T11:16:03;98667.22;;;38.39;100.00
6413;BME280;3239;48.714;9.472;2023-08-21T11:18:33;98659.50;;;38.67;100.00
6413;BME280;3239;48.714;9.472;2023-08-21T11:21:10;98663.63;;;38.34;100.00
6413;BME280;3239;48.714;9.472;2023-08-21T11:23:37;98665.28;;;37.00;100.00
6413;BME280;3239;48.714;9.472;2023-08-21T11:26:03;98668.31;;;37.90;100.00
6413;BME280;3239;48.714;9.472;2023-08-21T11:28:30;98658.34;;;37.95;100.00
6413;BME280;3239;48.714;9.472;2023-08-21T11:30:56;98653.31;;;36.04;100.00
6413;BME280;3239;48.714;9.472;2023-08-21T11:33:22;98657.56;;;35.60;100.00
6413;BME280;3239;48.714;9.472;2023-08-21T11:35:48;98663.69;;;35.42;100.00
6413;BME280;3239;48.714;9.472;2023-08-21T11:38:22;98661.44;;;36.22;100.00
6413;BME280;3239;48.714;9.472;2023-08-21T11:40:55;98658.78;;;35.90;100.00
6413;BME280;3239;48.714;9.472;2023-08-21T11:43:22;98654.06;;;36.07;100.00
6413;BME280;3239;48.714;9.472;2023-08-21T11:45:48;98652.00;;;34.24;100.00
6413;BME280;3239;48.714;9.472;2023-08-21T11:48:14;98656.22;;;34.21;100.00
6413;BME280;3239;48.714;9.472;2023-08-21T11:50:40;98658.22;;;33.85;100.00
6413;BME280;3239;48.714;9.472;2023-08-21T11:53:05;98659.75;;;33.07;100.00
6413;BME280;3239;48.714;9.472;2023-08-21T11:55:31;98657.84;;;33.71;100.00
6413;BME280;3239;48.714;9.472;2023-08-21T11:57:57;98654.13;;;34.23;100.00
6413;BME280;3239;48.714;9.472;2023-08-21T12:00:29;98652.13;;;34.61;100.00
6413;BME280;3239;48.714;9.472;2023-08-21T12:02:56;98645.88;;;34.69;100.00
6413;BME280;3239;48.714;9.472;2023-08-21T12:05:22;98638.13;;;34.73;100.00
6413;BME280;3239;48.714;9.472;2023-08-21T12:07:48;98646.22;;;34.20;100.00
6413;BME280;3239;48.714;9.472;2023-08-21T12:10:14;98641.91;;;33.58;100.00
6413;BME280;3239;48.714;9.472;2023-08-21T12:12:39;98635.63;;;33.91;100.00
6413;BME280;3239;48.714;9.472;2023-08-21T12:15:05;98643.25;;;33.55;100.00
6413;BME280;3239;48.714;9.472;2023-08-21T12:17:31;98639.09;;;33.87;100.00
6413;BME280;3239;48.714;9.472;2023-08-21T12:19:57;98633.81;;;33.76;100.00
6413;BME280;3239;48.714;9.472;2023-08-21T12:22:22;98634.94;;;34.55;100.00
6413;BME280;3239;48.714;9.472;2023-08-21T12:24:48;98633.69;;;35.00;100.00
6413;BME280;3239;48.714;9.472;2023-08-21T12:27:13;98631.59;;;34.67;100.00
6413;BME280;3239;48.714;9.472;2023-08-21T12:29:39;98634.81;;;34.18;100.00
6413;BME280;3239;48.714;9.472;2023-08-21T12:32:05;98628.34;;;34.15;100.00
6413;BME280;3239;48.714;9.472;2023-08-21T12:34:31;98633.13;;;33.20;100.00
6413;BME280;3239;48.714;9.472;2023-08-21T12:36:56;98620.00;;;33.92;100.00
6413;BME280;3239;48.714;9.472;2023-08-21T12:39:22;98634.84;;;33.31;100.00
6413;BME280;3239;48.714;9.472;2023-08-21T12:41:48;98633.66;;;32.87;100.00
6413;BME280;3239;48.714;9.472;2023-08-21T12:44:14;98633.78;;;32.91;100.00
6413;BME280;3239;48.714;9.472;2023-08-21T12:46:40;98625.50;;;32.76;100.00
6413;BME280;3239;48.714;9.472;2023-08-21T12:49:05;98613.34;;;33.24;100.00
6413;BME280;3239;48.714;9.472;2023-08-21T12:51:31;98622.44;;;33.76;100.00
6413;BME280;3239;48.714;9.472;2023-08-21T12:53:57;98614.19;;;33.58;100.00
6413;BME280;3239;48.714;9.472;2023-08-21T12:56:23;98605.47;;;34.09;100.00
6413;BME280;3239;48.714;9.472;2023-08-21T12:58:49;98604.09;;;34.79;100.00
6413;BME280;3239;48.714;9.472;2023-08-21T13:01:14;98602.09;;;35.67;100.00
6413;BME280;3239;48.714;9.472;2023-08-21T13:03:44;98602.66;;;34.43;100.00
6413;BME280;3239;48.714;9.472;2023-08-21T13:06:10;98593.25;;;35.49;100.00
6413;BME280;3239;48.714;9.472;2023-08-21T13:08:36;98594.63;;;35.91;100.00
6413;BME280;3239;48.714;9.472;2023-08-21T13:11:01;98585.81;;;36.23;100.00
6413;BME280;3239;48.714;9.472;2023-08-21T13:13:28;98588.81;;;35.40;100.00
6413;BME280;3239;48.714;9.472;2023-08-21T13:15:54;98585.91;;;35.36;100.00
6413;BME280;3239;48.714;9.472;2023-08-21T13:18:20;98584.25;;;34.83;100.00